Terminal Aerodrome Forecast
Issued by NWS Portland, OR

Home | Current Version | Previous Version | Text Only | Print | Product List | Glossary On
Versions: 1 2 3 4 5 6 7 8 9 10 11 12 13 14 15 16 17 18 19 20 21 22 23 24 25 26 27 28 29 30
000
FTUS46 KPQR 161310 AAB
TAFPDX
TAF AMD
KPDX 161310Z 1613/1712 15005KT P6SM -RA BKN025 OVC035
      TEMPO 1613/1615 BKN009 OVC025
     FM161500 19006KT P6SM -RA BKN012 OVC025
     FM162000 21009KT P6SM -RA BKN030 OVC040
     FM170300 20005KT P6SM -RA OVC050=

USA.gov is the U.S. government's official web portal to all federal, state and local government web resources and services.